createdAt,value
2023-02-06T07:45:39.913Z,1005.5
2023-02-06T07:47:41.441Z,1005.4
2023-02-06T07:49:43.336Z,1005.4
2023-02-06T07:51:44.731Z,1005.4
2023-02-06T07:53:46.225Z,1005.4
2023-02-06T07:55:48.243Z,1005.5
2023-02-06T07:57:49.744Z,1005.5
2023-02-06T07:59:51.176Z,1005.5
2023-02-06T08:01:52.562Z,1005.5
2023-02-06T08:03:53.739Z,1005.4
2023-02-06T08:05:55.691Z,1005.3
2023-02-06T08:09:59.710Z,1005.3
2023-02-06T08:12:01.100Z,1005.2
2023-02-06T08:14:02.792Z,1005.3
2023-02-06T08:16:04.448Z,1005.3
2023-02-06T08:18:05.814Z,1005.4
2023-02-06T08:20:07.677Z,1005.4
2023-02-06T08:24:10.424Z,1005.5
2023-02-06T08:26:11.740Z,1005.5
2023-02-06T08:28:13.431Z,1005.4
2023-02-06T08:30:14.541Z,1005.3
2023-02-06T08:32:16.525Z,1005.4
2023-02-06T08:34:18.378Z,1005.2
2023-02-06T08:36:20.222Z,1005.2
2023-02-06T08:38:21.862Z,1005.2
2023-02-06T08:40:23.590Z,1005.3
2023-02-06T08:42:25.243Z,1005.2
2023-02-06T08:44:26.690Z,1005.3
2023-02-06T08:46:28.407Z,1005.3
2023-02-06T08:48:29.822Z,1005.3
2023-02-06T08:50:30.853Z,1005.3
2023-02-06T08:52:31.880Z,1005.2
2023-02-06T08:54:35.571Z,1005.1
2023-02-06T08:56:34.647Z,1005.1
2023-02-06T08:58:35.933Z,1005.1
2023-02-06T09:00:37.106Z,1005.1
2023-02-06T09:02:38.938Z,1005.1
2023-02-06T09:04:40.210Z,1005
2023-02-06T09:06:41.292Z,1005
2023-02-06T09:08:43.011Z,1005
2023-02-06T09:10:44.880Z,1005
2023-02-06T09:12:46.432Z,1005
2023-02-06T09:14:47.980Z,1005.1
2023-02-06T09:16:49.899Z,1004.9
2023-02-06T09:18:52.736Z,1004.8
2023-02-06T09:20:52.788Z,1004.8
2023-02-06T09:22:53.972Z,1004.8
2023-02-06T09:24:55.241Z,1004.7
2023-02-06T09:27:00.029Z,1004.7
2023-02-06T09:28:58.713Z,1004.7
2023-02-06T09:30:59.912Z,1004.7
2023-02-06T09:33:01.117Z,1004.7
2023-02-06T09:35:03.054Z,1004.6
2023-02-06T09:37:04.087Z,1004.6
2023-02-06T09:39:05.460Z,1004.6
2023-02-06T09:41:07.345Z,1004.5
2023-02-06T09:43:09.265Z,1004.6
2023-02-06T09:45:10.490Z,1004.6
2023-02-06T09:47:12.012Z,1004.6
2023-02-06T09:49:13.946Z,1004.7
2023-02-06T09:51:15.592Z,1004.7
2023-02-06T09:53:17.039Z,1004.5
2023-02-06T09:55:18.077Z,1004.6
2023-02-06T09:57:19.343Z,1004.7
2023-02-06T09:59:21.221Z,1004.6
2023-02-06T10:01:22.637Z,1004.6
2023-02-06T10:05:26.078Z,1004.7
2023-02-06T10:07:27.774Z,1004.7
2023-02-06T10:09:29.496Z,1004.6
2023-02-06T10:11:30.519Z,1004.7
2023-02-06T10:13:31.678Z,1004.7
2023-02-06T10:15:33.040Z,1004.6
2023-02-06T10:17:34.633Z,1004.6
2023-02-06T10:19:36.273Z,1004.6
2023-02-06T10:21:37.756Z,1004.6
2023-02-06T10:23:39.407Z,1004.6
2023-02-06T10:25:40.507Z,1004.6
2023-02-06T10:27:42.168Z,1004.5
2023-02-06T10:29:44.082Z,1004.6
2023-02-06T10:31:45.829Z,1004.5
2023-02-06T10:33:47.799Z,1004.5
2023-02-06T10:35:49.097Z,1004.5
2023-02-06T10:37:51.001Z,1004.4
2023-02-06T10:39:52.111Z,1004.5
2023-02-06T10:41:53.774Z,1004.4
2023-02-06T10:43:55.268Z,1004.4
2023-02-06T10:47:57.844Z,1004.3
2023-02-06T10:49:59.450Z,1004.3
2023-02-06T10:52:00.881Z,1004.3
2023-02-06T10:54:01.951Z,1004.3
2023-02-06T10:56:02.947Z,1004.4
2023-02-06T10:58:04.760Z,1004.3
2023-02-06T11:00:06.022Z,1004.3
2023-02-06T11:02:07.233Z,1004.3
2023-02-06T11:04:08.747Z,1004.2
2023-02-06T11:04:52.583Z,1004.1
2023-02-06T11:08:55.296Z,1004
2023-02-06T11:10:56.581Z,1003.9
2023-02-06T11:12:58.617Z,1004
2023-02-06T11:15:00.269Z,1004
2023-02-06T11:19:03.176Z,1003.8
2023-02-06T11:21:05.061Z,1003.8
2023-02-06T11:23:06.566Z,1003.9
2023-02-06T11:25:08.442Z,1004
2023-02-06T11:27:09.995Z,1004
2023-02-06T11:29:11.225Z,1003.9
2023-02-06T11:31:13.142Z,1003.9
2023-02-06T11:33:14.314Z,1003.9
2023-02-06T11:35:15.874Z,1003.8
2023-02-06T11:37:16.979Z,1003.8
2023-02-06T11:39:18.412Z,1004
2023-02-06T11:41:19.983Z,1003.9
2023-02-06T11:43:21.546Z,1003.9
2023-02-06T11:45:22.506Z,1003.9
2023-02-06T11:47:24.409Z,1003.8
2023-02-06T11:49:25.503Z,1003.7
2023-02-06T11:51:27.090Z,1003.6
2023-02-06T11:53:28.971Z,1003.6
2023-02-06T11:55:30.790Z,1003.7
2023-02-06T11:57:32.238Z,1003.7
2023-02-06T11:59:33.840Z,1003.6
2023-02-06T12:01:35.135Z,1003.6
2023-02-06T12:03:37.041Z,1003.6
2023-02-06T12:07:39.429Z,1003.6
2023-02-06T12:09:41.242Z,1003.6
2023-02-06T12:11:43.073Z,1003.6
2023-02-06T12:13:44.428Z,1003.6
2023-02-06T12:15:47.771Z,1003.5
2023-02-06T12:17:47.860Z,1003.5
2023-02-06T12:19:48.783Z,1003.6
2023-02-06T12:21:50.481Z,1003.5
2023-02-06T12:23:51.620Z,1003.5
2023-02-06T12:25:52.772Z,1003.4
2023-02-06T12:27:54.218Z,1003.4
2023-02-06T12:29:55.073Z,1003.3
2023-02-06T12:31:56.127Z,1003.4
2023-02-06T12:33:57.346Z,1003.3
2023-02-06T12:35:58.896Z,1003.3
2023-02-06T12:38:00.600Z,1003.3
2023-02-06T12:40:01.970Z,1003.3
2023-02-06T12:42:02.924Z,1003.3
2023-02-06T12:44:04.776Z,1003.3
2023-02-06T12:46:07.398Z,1003.2
2023-02-06T12:48:09.617Z,1003.3
2023-02-06T12:50:09.741Z,1003.1
2023-02-06T12:52:11.509Z,1003.2
2023-02-06T12:54:12.519Z,1003.1
2023-02-06T12:56:14.282Z,1003.1
2023-02-06T12:58:15.429Z,1003.1
2023-02-06T13:00:16.412Z,1003.1
2023-02-06T13:06:20.709Z,1003.2
2023-02-06T13:08:21.909Z,1003.3
2023-02-06T13:10:23.097Z,1003.2
2023-02-06T13:12:24.608Z,1003.2
2023-02-06T13:14:25.661Z,1003
2023-02-06T13:16:27.435Z,1003.3
2023-02-06T13:18:28.639Z,1003.2
2023-02-06T13:20:32.473Z,1003.3
2023-02-06T13:22:31.742Z,1003.3
2023-02-06T13:24:33.462Z,1003.2
2023-02-06T13:26:34.966Z,1003.2
2023-02-06T13:28:36.629Z,1003.3
2023-02-06T13:30:38.516Z,1003.2
2023-02-06T13:32:41.023Z,1003.1
2023-02-06T13:34:42.108Z,1003.1
2023-02-06T13:38:45.120Z,1003.2
2023-02-06T13:40:46.393Z,1003.2
2023-02-06T13:42:47.360Z,1003.2
2023-02-06T13:44:48.789Z,1003.2
2023-02-06T13:46:49.804Z,1003.2
2023-02-06T13:48:51.545Z,1003.1
2023-02-06T13:50:52.697Z,1003.2
2023-02-06T13:52:54.407Z,1003.3
2023-02-06T13:54:55.620Z,1003.2
2023-02-06T13:56:57.554Z,1003.3
2023-02-06T13:58:58.783Z,1003.3
2023-02-06T14:01:00.562Z,1003.2
2023-02-06T14:03:02.395Z,1003.3
2023-02-06T14:05:03.982Z,1003.3
2023-02-06T14:07:05.991Z,1003.3
2023-02-06T14:09:07.868Z,1003.3
2023-02-06T14:11:09.368Z,1003.4
2023-02-06T14:13:10.673Z,1003.4
2023-02-06T14:15:12.210Z,1003.4
2023-02-06T14:17:14.013Z,1003.4
2023-02-06T14:19:15.933Z,1003.4
2023-02-06T14:21:17.478Z,1003.4
2023-02-06T14:23:18.483Z,1003.3
2023-02-06T14:25:19.934Z,1003.4
2023-02-06T14:27:21.785Z,1003.4
2023-02-06T14:29:23.746Z,1003.2
2023-02-06T14:31:25.157Z,1003.4
2023-02-06T14:33:26.241Z,1003.3
2023-02-06T14:35:27.400Z,1003.3
2023-02-06T14:37:28.992Z,1003.3
2023-02-06T14:39:30.044Z,1003.3
2023-02-06T14:41:31.116Z,1003.4
2023-02-06T14:43:32.782Z,1003.3
2023-02-06T14:45:41.560Z,1003.4
2023-02-06T14:47:36.609Z,1003.3
2023-02-06T14:49:38.452Z,1003.3
2023-02-06T14:51:40.264Z,1003.4
2023-02-06T14:53:41.879Z,1003.2
2023-02-06T14:55:43.483Z,1003.2
2023-02-06T14:57:45.270Z,1003.2
2023-02-06T14:59:46.325Z,1003.1
2023-02-06T15:03:49.082Z,1003.2
2023-02-06T15:05:50.735Z,1003
2023-02-06T15:07:52.412Z,1003
2023-02-06T15:09:53.827Z,1003.1
2023-02-06T15:11:55.018Z,1003
2023-02-06T15:13:56.391Z,1003
2023-02-06T15:15:57.896Z,1002.9
2023-02-06T15:17:58.998Z,1003
2023-02-06T15:20:00.170Z,1003
2023-02-06T15:22:01.693Z,1003
2023-02-06T15:24:02.692Z,1003
2023-02-06T15:26:03.787Z,1003
2023-02-06T15:30:06.873Z,1003
2023-02-06T15:32:08.784Z,1003
2023-02-06T15:34:10.149Z,1003
2023-02-06T15:36:11.838Z,1003.1
2023-02-06T15:38:12.945Z,1003.1
2023-02-06T15:40:14.667Z,1003.1
2023-02-06T15:42:16.129Z,1003.1
2023-02-06T15:44:17.541Z,1003.1
2023-02-06T15:46:19.479Z,1003.1
2023-02-06T15:48:20.561Z,1003.1
2023-02-06T15:50:22.380Z,1003.1
2023-02-06T15:52:23.518Z,1003.1
2023-02-06T15:54:24.621Z,1003.2
2023-02-06T15:56:26.393Z,1003.1
2023-02-06T15:58:27.781Z,1003.1
2023-02-06T16:00:29.710Z,1003
2023-02-06T16:02:31.391Z,1003
2023-02-06T16:04:33.133Z,1003
2023-02-06T16:06:34.256Z,1002.9
2023-02-06T16:08:35.464Z,1002.9
2023-02-06T16:10:37.159Z,1002.9
2023-02-06T16:12:37.944Z,1002.9
2023-02-06T16:14:39.403Z,1002.8
2023-02-06T16:16:40.953Z,1002.8
2023-02-06T16:18:42.639Z,1002.9
2023-02-06T16:22:45.090Z,1003
2023-02-06T16:24:46.751Z,1003.1
2023-02-06T16:26:48.719Z,1003
2023-02-06T16:28:50.255Z,1003.1
2023-02-06T16:30:51.989Z,1003.1
2023-02-06T16:32:55.286Z,1003.2
2023-02-06T16:34:55.566Z,1003.1
2023-02-06T16:36:56.969Z,1003.1
2023-02-06T16:39:03.934Z,1003.1
2023-02-06T16:40:59.997Z,1003.3
2023-02-06T16:43:01.842Z,1003.2
2023-02-06T16:45:03.851Z,1003.1
2023-02-06T16:47:04.898Z,1003.1
2023-02-06T16:49:05.920Z,1003.2
2023-02-06T16:51:07.628Z,1003.1
2023-02-06T16:53:09.362Z,1003.1
2023-02-06T16:55:10.735Z,1003
2023-02-06T16:57:12.630Z,1003.2
2023-02-06T16:59:14.624Z,1003.2
2023-02-06T17:01:16.380Z,1003.1
2023-02-06T17:03:17.411Z,1003.2
2023-02-06T17:05:19.217Z,1003.2
2023-02-06T17:07:21.021Z,1003.3
2023-02-06T17:11:23.985Z,1003.2
2023-02-06T17:13:25.918Z,1003.2
2023-02-06T17:15:27.321Z,1003.4
2023-02-06T17:17:28.988Z,1003.4
2023-02-06T17:19:30.844Z,1003.4
2023-02-06T17:21:32.590Z,1003.5
2023-02-06T17:23:33.959Z,1003.5
2023-02-06T17:25:35.495Z,1003.6
2023-02-06T17:27:37.071Z,1003.5
2023-02-06T17:29:39.052Z,1003.7
2023-02-06T17:31:40.543Z,1003.5
2023-02-06T17:33:41.840Z,1003.6
2023-02-06T17:35:43.224Z,1003.5
2023-02-06T17:37:45.190Z,1003.5
2023-02-06T17:39:46.313Z,1003.5
2023-02-06T17:41:48.106Z,1003.5
2023-02-06T17:43:49.459Z,1003.6
2023-02-06T17:45:51.415Z,1003.5
2023-02-06T17:47:53.044Z,1003.4
2023-02-06T17:49:54.320Z,1003.4
2023-02-06T17:50:38.539Z,1003.5
2023-02-06T17:52:40.033Z,1003.4
2023-02-06T17:54:41.903Z,1003.5
2023-02-06T17:56:43.646Z,1003.6
2023-02-06T17:58:45.361Z,1003.6
2023-02-06T18:00:47.224Z,1003.5
2023-02-06T18:02:48.538Z,1003.6
2023-02-06T18:04:49.935Z,1003.5
2023-02-06T18:06:51.901Z,1003.6
2023-02-06T18:08:53.050Z,1003.5
2023-02-06T18:10:54.964Z,1003.6
2023-02-06T18:12:56.895Z,1003.6
2023-02-06T18:14:57.988Z,1003.7
2023-02-06T18:16:59.389Z,1003.6
2023-02-06T18:19:01.042Z,1003.8
2023-02-06T18:21:02.593Z,1003.7
2023-02-06T18:23:04.640Z,1003.8
2023-02-06T18:25:06.090Z,1003.8
2023-02-06T18:27:08.059Z,1003.8
2023-02-06T18:29:09.916Z,1003.9
2023-02-06T18:31:11.574Z,1003.8
2023-02-06T18:33:12.845Z,1003.9
2023-02-06T18:35:14.220Z,1003.8
2023-02-06T18:37:16.088Z,1003.9
2023-02-06T18:39:17.452Z,1003.9
2023-02-06T18:41:18.783Z,1004
2023-02-06T18:43:19.863Z,1003.9
2023-02-06T18:47:22.817Z,1003.8
2023-02-06T18:49:24.554Z,1003.8
2023-02-06T18:51:25.783Z,1003.8
2023-02-06T18:53:26.881Z,1003.8
2023-02-06T18:55:28.780Z,1003.8
2023-02-06T18:57:30.634Z,1003.8
2023-02-06T18:59:32.263Z,1003.9
2023-02-06T19:01:34.244Z,1003.8
2023-02-06T19:03:35.280Z,1003.9
2023-02-06T19:05:36.490Z,1003.9
2023-02-06T19:07:37.561Z,1003.9
2023-02-06T19:09:39.343Z,1003.9
2023-02-06T19:11:41.140Z,1003.9
2023-02-06T19:13:43.145Z,1003.8
2023-02-06T19:15:44.778Z,1003.8
2023-02-06T19:17:46.670Z,1003.8
2023-02-06T19:19:48.263Z,1003.8
2023-02-06T19:21:50.139Z,1003.8
2023-02-06T19:23:51.257Z,1003.8
2023-02-06T19:25:53.129Z,1003.8
2023-02-06T19:29:55.794Z,1003.8
2023-02-06T19:31:56.945Z,1003.8
2023-02-06T19:33:58.018Z,1003.7
2023-02-06T19:35:59.865Z,1003.7
2023-02-06T19:38:01.313Z,1003.8
2023-02-06T19:40:02.516Z,1003.8
2023-02-06T19:42:06.462Z,1003.8
2023-02-06T19:44:05.609Z,1003.8
2023-02-06T19:46:07.171Z,1003.7
2023-02-06T19:48:08.625Z,1003.7
2023-02-06T19:50:12.057Z,1003.8
2023-02-06T19:52:12.100Z,1003.7
2023-02-06T19:54:13.418Z,1003.8
2023-02-06T19:56:14.989Z,1003.8
2023-02-06T19:58:16.677Z,1003.8
2023-02-06T20:00:18.401Z,1003.8
2023-02-06T20:02:19.707Z,1003.8
2023-02-06T20:04:21.370Z,1003.9
2023-02-06T20:06:23.265Z,1003.9
2023-02-06T20:08:24.813Z,1003.9
2023-02-06T20:10:26.943Z,1003.9
2023-02-06T20:12:28.242Z,1003.8
2023-02-06T20:14:30.294Z,1003.9
2023-02-06T20:16:31.614Z,1003.8
2023-02-06T20:18:32.655Z,1003.9
2023-02-06T20:20:34.164Z,1003.9
2023-02-06T20:22:35.605Z,1004
2023-02-06T20:24:36.931Z,1004
2023-02-06T20:26:38.560Z,1004
2023-02-06T20:28:39.936Z,1004
2023-02-06T20:30:41.590Z,1004
2023-02-06T20:32:43.016Z,1004
2023-02-06T20:34:44.061Z,1004
2023-02-06T20:38:46.555Z,1003.8
2023-02-06T20:40:48.541Z,1003.8
2023-02-06T20:42:49.628Z,1003.8
2023-02-06T20:44:50.814Z,1003.9
2023-02-06T20:48:53.127Z,1004
2023-02-06T20:50:55.113Z,1004
2023-02-06T20:54:57.754Z,1003.9
2023-02-06T20:56:58.880Z,1003.9
2023-02-06T20:59:00.266Z,1003.9
2023-02-06T21:01:02.162Z,1004
2023-02-06T21:03:04.140Z,1003.9
2023-02-06T21:05:06.147Z,1003.9
2023-02-06T21:07:08.083Z,1003.9
2023-02-06T21:09:09.474Z,1003.8
2023-02-06T21:11:10.489Z,1003.9
2023-02-06T21:13:12.202Z,1003.9
2023-02-06T21:15:13.791Z,1003.9
2023-02-06T21:17:14.929Z,1004
2023-02-06T21:19:16.584Z,1004.1
2023-02-06T21:21:17.656Z,1004.1
2023-02-06T21:23:18.708Z,1004
2023-02-06T21:25:20.705Z,1004.1
2023-02-06T21:27:22.092Z,1004.1
2023-02-06T21:29:23.546Z,1004
2023-02-06T21:31:25.457Z,1004.1
2023-02-06T21:33:27.018Z,1004.1
2023-02-06T21:35:28.313Z,1004
2023-02-06T21:37:29.772Z,1004
2023-02-06T21:39:31.750Z,1004
2023-02-06T21:41:32.817Z,1003.9
2023-02-06T21:43:34.243Z,1003.9
2023-02-06T21:45:35.861Z,1004
2023-02-06T21:47:37.556Z,1004
2023-02-06T21:49:38.995Z,1004
2023-02-06T21:53:42.788Z,1004
2023-02-06T21:55:44.505Z,1004
2023-02-06T21:57:46.076Z,1004
2023-02-06T21:59:48.145Z,1003.9
2023-02-06T22:01:49.803Z,1003.9
2023-02-06T22:03:50.981Z,1003.8
2023-02-06T22:05:52.697Z,1003.8
2023-02-06T22:07:54.738Z,1003.8
2023-02-06T22:09:56.721Z,1003.8
2023-02-06T22:11:57.934Z,1003.8
2023-02-06T22:13:59.136Z,1003.8
2023-02-06T22:16:00.613Z,1003.9
2023-02-06T22:18:02.344Z,1004
2023-02-06T22:20:04.132Z,1004
2023-02-06T22:22:05.292Z,1003.9
2023-02-06T22:24:06.771Z,1004
2023-02-06T22:26:08.251Z,1004
2023-02-06T22:28:18.498Z,1004
2023-02-06T22:30:10.761Z,1004
2023-02-06T22:32:12.052Z,1004.1
2023-02-06T22:34:13.606Z,1004
2023-02-06T22:36:14.970Z,1004.2
2023-02-06T22:38:16.831Z,1004.1
2023-02-06T22:40:18.681Z,1004.2
2023-02-06T22:42:20.449Z,1004.3
2023-02-06T22:44:21.994Z,1004.2
2023-02-06T22:46:24.087Z,1004.3
2023-02-06T22:48:25.775Z,1004.3
2023-02-06T22:50:27.154Z,1004.3
2023-02-06T22:52:28.646Z,1004.4
2023-02-06T22:54:30.124Z,1004.4
2023-02-06T22:56:31.292Z,1004.6
2023-02-06T22:58:32.400Z,1004.4
2023-02-06T23:00:33.979Z,1004.4
2023-02-06T23:02:35.552Z,1004.5
2023-02-06T23:04:36.651Z,1004.7
2023-02-06T23:06:38.397Z,1004.7
2023-02-06T23:08:39.805Z,1004.7
2023-02-06T23:10:41.433Z,1004.7
2023-02-06T23:12:42.922Z,1004.7
2023-02-06T23:14:44.665Z,1004.6
2023-02-06T23:16:45.878Z,1004.8
2023-02-06T23:18:47.116Z,1004.8
2023-02-06T23:20:48.712Z,1004.8
2023-02-06T23:22:50.332Z,1004.7
2023-02-06T23:24:51.652Z,1004.9
2023-02-06T23:26:53.651Z,1004.8
2023-02-06T23:28:55.012Z,1004.9
2023-02-06T23:30:56.982Z,1004.8
2023-02-06T23:32:58.213Z,1004.9
2023-02-06T23:34:59.590Z,1004.9
2023-02-06T23:37:00.759Z,1004.9
2023-02-06T23:39:02.818Z,1005
2023-02-06T23:41:04.026Z,1005
2023-02-06T23:45:07.802Z,1005.1
2023-02-06T23:47:09.724Z,1005.1
2023-02-06T23:49:11.310Z,1005.1
2023-02-06T23:51:13.167Z,1005.1
2023-02-06T23:53:14.514Z,1005.1
2023-02-06T23:55:15.601Z,1005
2023-02-06T23:57:17.632Z,1004.9
2023-02-06T23:59:19.339Z,1005
